Time;durP1;ratioP1;P1;durP2;ratioP2;P2;SDS_P1;SDS_P2;PMS_P1;PMS_P2;Temp;Humidity;BMP_temperature;BMP_pressure;BME280_temperature;BME280_humidity;BME280_pressure;Samples;Min_cycle;Max_cycle;Signal;HPM_P1;HPM_P2
2022/01/19 00:01:34;;;;;;;;;54.00;45.50;;;;;2.96;60.36;101270.72;4991442;28;8865;-74
2022/01/19 00:04:04;;;;;;;;;46.50;33.75;;;;;2.98;60.27;101258.81;5007805;28;8892;-73
2022/01/19 00:06:33;;;;;;;;;47.00;43.00;;;;;2.99;60.37;101252.88;4991502;28;8876;-74
2022/01/19 00:09:03;;;;;;;;;46.25;43.25;;;;;2.97;60.19;101259.63;4991258;28;9597;-74
2022/01/19 00:11:32;;;;;;;;;52.25;45.50;;;;;2.97;60.33;101269.94;5007780;28;8869;-74
2022/01/19 00:14:03;;;;;;;;;50.75;44.50;;;;;2.96;60.10;101264.69;5007833;28;8841;-75
2022/01/19 00:16:32;;;;;;;;;41.00;39.75;;;;;2.94;60.26;101264.59;5007164;28;8861;-75
2022/01/19 00:19:00;;;;;;;;;48.00;45.50;;;;;2.93;60.09;101263.72;4975608;28;8853;-76
2022/01/19 00:21:29;;;;;;;;;48.00;44.50;;;;;2.92;60.21;101263.63;4975357;28;8864;-74
2022/01/19 00:23:58;;;;;;;;;52.00;43.33;;;;;2.91;60.10;101267.00;5029891;28;8867;-75
2022/01/19 00:26:27;;;;;;;;;50.25;44.50;;;;;2.57;61.51;101264.13;5047108;28;8878;-75
2022/01/19 00:28:57;;;;;;;;;50.25;43.50;;;;;2.62;61.04;101263.59;4999119;28;8901;-76
2022/01/19 00:31:28;;;;;;;;;40.00;37.00;;;;;2.41;61.43;101264.91;5084596;28;8856;-76
2022/01/19 00:33:56;;;;;;;;;25.25;21.00;;;;;2.48;61.71;101257.63;5051451;28;9614;-75
2022/01/19 00:36:26;;;;;;;;;44.75;41.75;;;;;2.54;61.52;101254.53;5014428;28;8862;-77
2022/01/19 00:38:55;;;;;;;;;47.25;44.50;;;;;2.56;61.50;101245.22;5065181;28;8933;-75
2022/01/19 00:41:25;;;;;;;;;46.25;43.00;;;;;2.60;61.24;101244.59;5048342;28;8920;-76
2022/01/19 00:43:54;;;;;;;;;53.25;43.00;;;;;2.63;60.88;101241.34;5048620;28;8858;-74
2022/01/19 00:46:23;;;;;;;;;49.25;41.75;;;;;2.63;60.75;101236.19;5048367;28;8947;-74
2022/01/19 00:48:53;;;;;;;;;55.25;44.75;;;;;2.63;61.27;101239.63;5064545;28;8890;-76
2022/01/19 00:51:22;;;;;;;;;48.50;44.50;;;;;2.64;60.85;101246.56;5048288;28;8838;-76
2022/01/19 00:53:51;;;;;;;;;45.25;42.00;;;;;2.65;60.83;101248.34;5048391;28;8850;-76
2022/01/19 00:56:19;;;;;;;;;52.50;44.75;;;;;2.63;60.90;101251.63;5033019;28;8851;-75
2022/01/19 00:58:48;;;;;;;;;51.00;44.25;;;;;2.60;61.07;101243.72;5062778;28;8846;-75
2022/01/19 01:01:18;;;;;;;;;47.00;39.25;;;;;2.61;61.02;101248.97;5035018;28;8859;-75
2022/01/19 01:03:49;;;;;;;;;47.25;42.00;;;;;2.60;61.04;101241.16;5046967;28;8881;-74
2022/01/19 01:06:20;;;;;;;;;43.00;40.75;;;;;2.61;61.04;101233.50;5030006;28;8866;-72
2022/01/19 01:08:49;;;;;;;;;50.25;45.75;;;;;2.61;60.88;101228.38;5045765;28;8886;-76
2022/01/19 01:11:18;;;;;;;;;43.50;40.25;;;;;2.34;61.44;101243.03;5046220;28;9606;-77
2022/01/19 01:16:35;;;;;;;;;40.00;36.50;;;;;2.37;61.22;101239.78;5047341;28;8878;-73
2022/01/19 01:19:06;;;;;;;;;47.00;44.75;;;;;2.39;61.28;101236.50;4990501;28;8824;-76
2022/01/19 01:21:39;;;;;;;;;50.00;43.00;;;;;2.39;61.23;101233.03;4958967;28;8949;-73
2022/01/19 01:24:08;;;;;;;;;51.75;43.25;;;;;2.42;61.07;101234.13;4974268;28;8852;-75
2022/01/19 01:26:37;;;;;;;;;55.25;47.25;;;;;2.43;61.24;101232.41;4990688;28;8874;-75
2022/01/19 01:29:05;;;;;;;;;51.50;45.25;;;;;2.33;61.47;101236.13;4991309;28;8850;-77
2022/01/19 01:31:35;;;;;;;;;44.75;42.00;;;;;2.34;61.28;101238.81;4987388;28;8947;-75
2022/01/19 01:34:03;;;;;;;;;38.50;36.00;;;;;2.37;61.38;101232.06;4951880;28;9661;-76
2022/01/19 01:36:33;;;;;;;;;50.50;42.25;;;;;2.37;61.26;101235.50;4904311;28;8860;-75
2022/01/19 01:39:03;;;;;;;;;51.50;44.00;;;;;2.28;61.63;101228.13;4935431;28;8852;-74
2022/01/19 01:41:32;;;;;;;;;44.00;40.00;;;;;2.31;61.50;101218.03;4924936;28;9724;-74
2022/01/19 01:44:18;;;;;;;;;42.75;35.75;;;;;2.26;61.51;101218.53;4970252;28;8863;-73
2022/01/19 01:46:50;;;;;;;;;40.75;37.00;;;;;2.28;61.59;101217.81;4939466;28;8869;-77
2022/01/19 01:49:26;;;;;;;;;44.25;38.00;;;;;2.27;61.71;101216.06;5010122;28;8868;-76
2022/01/19 01:54:46;;;;;;;;;39.75;36.00;;;;;2.16;62.08;101214.53;5028883;28;8889;-77
2022/01/19 01:57:15;;;;;;;;;47.75;42.50;;;;;2.17;61.93;101205.13;5028482;28;8855;-76
2022/01/19 01:59:44;;;;;;;;;16.50;5.25;;;;;2.16;62.15;101204.25;4970141;28;8866;-76
2022/01/19 02:02:22;;;;;;;;;33.75;30.00;;;;;2.22;61.78;101196.00;4969896;28;9704;-74
2022/01/19 02:04:51;;;;;;;;;40.50;35.25;;;;;2.26;61.91;101192.81;4982773;28;8971;-74
2022/01/19 02:07:32;;;;;;;;;43.00;40.25;;;;;2.24;61.69;101190.13;4993101;28;9604;-74
2022/01/19 02:10:18;;;;;;;;;40.75;37.50;;;;;2.21;61.70;101195.13;4988775;28;8891;-75
2022/01/19 02:16:07;;;;;;;;;41.75;36.25;;;;;2.21;61.73;101204.50;5005167;28;8878;-77
2022/01/19 02:24:12;;;;;;;;;38.75;35.50;;;;;2.26;61.51;101203.09;4975920;28;8877;-73
2022/01/19 02:26:57;;;;;;;;;46.75;43.75;;;;;2.27;61.39;101186.84;4992383;28;8830;-75
2022/01/19 02:41:02;;;;;;;;;39.00;37.25;;;;;2.18;61.61;101161.47;4934299;29;9829;-74
2022/01/19 02:43:31;;;;;;;;;41.75;37.00;;;;;2.19;61.60;101164.91;4934392;29;8854;-74
2022/01/19 02:51:31;;;;;;;;;30.75;22.25;;;;;2.14;61.32;101180.09;4899745;29;8991;-74
2022/01/19 02:54:01;;;;;;;;;46.25;39.75;;;;;2.07;61.66;101180.53;4865057;29;8978;-76
2022/01/19 02:56:34;;;;;;;;;43.00;39.50;;;;;2.05;61.75;101172.69;4880929;29;8879;-77
2022/01/19 02:59:14;;;;;;;;;44.25;41.00;;;;;2.06;61.44;101176.16;4896186;29;8973;-75
2022/01/19 03:10:04;;;;;;;;;35.75;34.50;;;;;2.05;61.51;101182.13;4987091;28;8863;-76
2022/01/19 03:12:33;;;;;;;;;27.50;27.00;;;;;2.03;61.48;101184.59;4995783;28;8871;-76
2022/01/19 03:15:01;;;;;;;;;41.00;38.00;;;;;2.04;61.27;101172.59;5011720;28;9574;-74
2022/01/19 03:17:30;;;;;;;;;38.25;36.75;;;;;1.99;61.44;101172.34;4995304;28;8844;-74
2022/01/19 03:19:59;;;;;;;;;38.50;34.50;;;;;2.00;61.34;101178.38;4995322;28;9629;-76
2022/01/19 03:22:34;;;;;;;;;35.00;30.25;;;;;1.98;61.45;101172.25;5012076;28;8856;-74
2022/01/19 03:25:11;;;;;;;;;28.75;26.25;;;;;1.96;61.51;101169.56;5011750;28;8852;-76
2022/01/19 03:27:40;;;;;;;;;40.25;33.50;;;;;1.97;61.61;101176.50;4966443;28;8880;-74
2022/01/19 03:30:10;;;;;;;;;37.25;33.00;;;;;1.94;61.63;101164.34;5068527;28;8896;-74
2022/01/19 03:32:40;;;;;;;;;28.00;27.25;;;;;1.59;62.50;101164.78;5063717;28;8847;-73
2022/01/19 03:35:09;;;;;;;;;28.25;25.00;;;;;1.67;62.48;101162.69;5052544;28;10094;-74
2022/01/19 03:37:39;;;;;;;;;41.00;30.50;;;;;1.48;63.04;101171.81;5068900;28;8952;-73
2022/01/19 03:40:12;;;;;;;;;33.00;30.50;;;;;1.54;62.48;101177.34;5086525;28;8836;-73
2022/01/19 03:42:42;;;;;;;;;31.00;27.50;;;;;1.59;62.82;101184.44;5052336;28;8869;-74
2022/01/19 03:45:12;;;;;;;;;37.50;31.00;;;;;1.52;62.99;101178.91;5086232;28;8856;-73
2022/01/19 03:47:44;;;;;;;;;35.50;29.00;;;;;1.53;62.81;101172.09;5052517;28;8856;-77
2022/01/19 03:50:13;;;;;;;;;34.75;31.00;;;;;1.56;62.82;101182.56;5069103;28;8877;-75
2022/01/19 03:52:42;;;;;;;;;34.75;29.50;;;;;1.44;63.46;101182.72;5065389;28;8877;-74
2022/01/19 03:55:12;;;;;;;;;33.25;29.25;;;;;1.51;62.96;101177.16;5027747;28;8886;-75
2022/01/19 03:57:41;;;;;;;;;27.50;27.25;;;;;1.58;62.46;101180.97;4978878;28;8951;-74
2022/01/19 04:00:11;;;;;;;;;27.50;25.00;;;;;1.61;62.62;101177.69;5011045;28;8955;-74
2022/01/19 04:02:44;;;;;;;;;33.75;30.75;;;;;1.61;62.57;101164.84;5040227;28;8950;-75
2022/01/19 04:05:20;;;;;;;;;34.00;29.75;;;;;1.62;62.43;101170.09;4997908;28;8917;-74
2022/01/19 04:07:49;;;;;;;;;34.25;30.50;;;;;1.69;62.43;101179.09;5030580;28;8963;-74
2022/01/19 04:10:19;;;;;;;;;38.50;32.25;;;;;1.66;62.47;101174.63;5047765;28;8883;-74
2022/01/19 04:13:08;;;;;;;;;25.25;22.00;;;;;1.67;62.23;101178.09;5030615;28;8847;-76
2022/01/19 04:15:37;;;;;;;;;39.25;33.50;;;;;1.65;62.36;101179.69;5030156;28;8863;-75
2022/01/19 04:18:06;;;;;;;;;36.25;34.50;;;;;1.64;62.34;101183.03;4997778;28;8982;-74
2022/01/19 04:20:41;;;;;;;;;37.25;32.25;;;;;1.64;62.28;101183.03;5014351;28;9673;-77
2022/01/19 04:23:10;;;;;;;;;37.00;33.25;;;;;1.63;62.57;101186.44;5046992;28;8871;-75
2022/01/19 04:25:40;;;;;;;;;43.50;34.50;;;;;1.63;62.19;101181.28;5030123;28;8981;-76
2022/01/19 04:28:09;;;;;;;;;36.00;29.25;;;;;1.60;62.29;101179.41;5047290;28;8867;-74
2022/01/19 04:30:43;;;;;;;;;37.50;34.50;;;;;1.59;62.51;101185.34;5030379;28;8860;-75
2022/01/19 04:33:14;;;;;;;;;33.25;32.00;;;;;1.59;62.19;101180.22;5017258;28;8880;-76
2022/01/19 04:35:49;;;;;;;;;35.00;28.25;;;;;1.50;62.63;101179.63;5051367;28;8945;-73
2022/01/19 04:44:30;;;;;;;;;26.00;22.00;;;;;1.55;62.33;101176.56;5051471;28;8847;-76
2022/01/19 05:04:24;;;;;;;;;25.75;19.25;;;;;1.33;63.24;101166.59;5006444;28;8836;-78
2022/01/19 05:07:15;;;;;;;;;31.25;31.25;;;;;1.39;63.19;101160.97;4967506;28;9022;-74
2022/01/19 05:10:04;;;;;;;;;40.00;36.75;;;;;1.45;63.12;101163.91;4967398;28;8882;-75
2022/01/19 05:15:22;;;;;;;;;32.25;25.75;;;;;1.54;62.91;101145.59;4967112;28;8864;-76
2022/01/19 05:17:51;;;;;;;;;31.50;31.25;;;;;1.55;62.62;101147.38;4967735;28;8978;-75
2022/01/19 05:20:19;;;;;;;;;27.75;24.75;;;;;1.55;62.81;101143.13;4967188;28;8860;-76
2022/01/19 05:22:48;;;;;;;;;50.00;43.00;;;;;1.58;62.76;101149.25;4958459;28;8975;-76
2022/01/19 05:25:19;;;;;;;;;50.75;45.50;;;;;1.61;62.74;101149.41;4947922;28;8853;-74
2022/01/19 05:27:56;;;;;;;;;33.50;30.75;;;;;1.60;62.55;101157.94;4947736;28;9050;-77
2022/01/19 05:30:26;;;;;;;;;64.25;48.75;;;;;1.59;62.79;101156.16;4983601;28;8866;-76
2022/01/19 05:32:55;;;;;;;;;41.00;38.25;;;;;1.60;62.61;101152.81;5004051;28;9007;-76
2022/01/19 05:35:27;;;;;;;;;37.00;34.25;;;;;1.62;62.40;101157.22;5025493;28;8878;-76
2022/01/19 05:38:25;;;;;;;;;33.00;29.50;;;;;1.59;62.40;101158.72;5038157;28;8878;-74
2022/01/19 05:41:14;;;;;;;;;57.50;43.25;;;;;1.59;62.33;101153.59;5003241;28;9035;-74
2022/01/19 05:43:44;;;;;;;;;41.25;37.00;;;;;1.59;62.44;101158.72;4992689;28;8846;-76
2022/01/19 05:46:14;;;;;;;;;37.25;33.25;;;;;1.62;62.44;101158.94;5008846;28;8911;-77
2022/01/19 05:48:44;;;;;;;;;41.50;37.75;;;;;1.62;62.65;101158.94;5010104;28;8846;-78
2022/01/19 05:51:14;;;;;;;;;51.75;39.75;;;;;1.61;62.41;101157.13;4984339;28;8840;-75
2022/01/19 05:53:42;;;;;;;;;48.25;42.25;;;;;1.57;62.41;101148.38;4967784;28;8969;-74
2022/01/19 05:56:13;;;;;;;;;51.00;41.00;;;;;1.56;62.41;101149.16;4968108;28;8868;-75
2022/01/19 05:58:53;;;;;;;;;48.00;40.00;;;;;1.56;62.51;101147.47;4967276;28;8883;-76
2022/01/19 06:01:23;;;;;;;;;43.75;40.00;;;;;1.55;62.29;101138.00;4967815;28;8861;-74
2022/01/19 06:03:53;;;;;;;;;45.00;35.50;;;;;1.54;62.74;101140.47;4969268;28;8873;-77
2022/01/19 06:06:21;;;;;;;;;37.25;36.75;;;;;1.54;62.67;101143.03;4986034;28;8907;-75
2022/01/19 06:09:22;;;;;;;;;45.00;42.75;;;;;1.54;62.45;101143.91;4969275;28;8874;-75
2022/01/19 06:11:51;;;;;;;;;56.00;46.75;;;;;1.57;62.58;101150.94;4985386;28;8862;-76
2022/01/19 06:14:23;;;;;;;;;51.25;44.00;;;;;1.59;62.32;101151.00;4969488;28;8993;-75
2022/01/19 06:16:54;;;;;;;;;61.00;49.00;;;;;1.59;62.50;101151.94;4985486;28;8955;-74
2022/01/19 06:19:23;;;;;;;;;44.75;36.75;;;;;1.58;62.41;101154.41;4988418;28;8857;-77
2022/01/19 06:21:53;;;;;;;;;62.25;50.25;;;;;1.60;62.39;101150.22;5012236;28;8988;-75
2022/01/19 06:24:22;;;;;;;;;37.25;36.75;;;;;1.61;62.57;101141.72;5010863;28;8885;-74
2022/01/19 06:26:51;;;;;;;;;66.00;50.50;;;;;1.63;62.30;101145.28;5034969;28;8880;-75
2022/01/19 06:29:21;;;;;;;;;49.25;46.50;;;;;1.62;62.31;101139.25;5065931;28;8848;-77
2022/01/19 06:31:51;;;;;;;;;45.50;41.00;;;;;1.64;62.49;101140.22;5082380;28;9082;-76
2022/01/19 06:34:21;;;;;;;;;48.25;42.75;;;;;1.67;62.36;101139.53;5063611;28;8863;-74
2022/01/19 06:37:10;;;;;;;;;56.75;48.25;;;;;1.69;62.33;101138.81;5063969;28;8857;-75
2022/01/19 06:40:03;;;;;;;;;58.25;51.50;;;;;1.74;62.62;101133.97;5004160;28;8936;-79
2022/01/19 06:42:37;;;;;;;;;54.00;47.75;;;;;1.78;61.97;101135.94;5004263;28;8872;-76
2022/01/19 06:45:08;;;;;;;;;60.75;51.25;;;;;1.81;62.07;101136.09;4970879;28;8856;-77
2022/01/19 06:47:38;;;;;;;;;59.00;49.00;;;;;1.87;61.83;101136.50;4987732;28;8876;-75
2022/01/19 06:50:11;;;;;;;;;61.25;49.00;;;;;1.94;61.73;101130.00;4987718;28;8883;-76
2022/01/19 06:52:45;;;;;;;;;58.00;49.75;;;;;2.00;61.66;101132.06;4967704;28;8898;-74
2022/01/19 06:55:14;;;;;;;;;57.50;50.00;;;;;2.02;61.52;101133.91;4968211;28;9031;-78
2022/01/19 06:57:45;;;;;;;;;64.00;48.75;;;;;2.09;61.56;101136.06;4951315;28;8905;-76
2022/01/19 07:00:17;;;;;;;;;59.00;49.00;;;;;2.14;61.29;101131.22;4981603;28;8871;-76
2022/01/19 07:03:06;;;;;;;;;71.25;54.25;;;;;2.23;61.39;101120.53;4925621;28;8878;-75
2022/01/19 07:05:50;;;;;;;;;59.00;50.75;;;;;2.29;60.93;101116.66;4951739;28;8876;-76
2022/01/19 07:08:45;;;;;;;;;64.50;53.50;;;;;2.29;60.99;101111.50;4929980;29;8876;-76
2022/01/19 07:11:15;;;;;;;;;66.25;54.00;;;;;2.31;61.09;101117.63;4914168;29;8852;-75
2022/01/19 07:13:44;;;;;;;;;68.50;53.50;;;;;2.39;61.13;101112.94;4898294;29;8860;-73
2022/01/19 07:16:15;;;;;;;;;66.75;50.25;;;;;2.46;60.85;101109.03;4916474;28;8922;-75
2022/01/19 07:18:44;;;;;;;;;68.25;52.50;;;;;2.53;60.85;101100.84;4988056;28;8870;-74
2022/01/19 07:21:15;;;;;;;;;67.75;52.25;;;;;2.62;60.64;101105.63;4971186;28;8928;-75
2022/01/19 07:23:53;;;;;;;;;60.75;50.25;;;;;2.70;59.98;101102.69;4997574;28;8856;-76
2022/01/19 07:26:22;;;;;;;;;71.00;54.00;;;;;2.78;59.93;101104.78;4991235;28;8859;-74
2022/01/19 07:28:51;;;;;;;;;57.00;49.25;;;;;2.85;60.03;101105.22;4975484;28;9037;-75
2022/01/19 07:31:20;;;;;;;;;64.50;52.75;;;;;2.95;59.72;101105.72;4966736;28;9060;-75
2022/01/19 07:33:51;;;;;;;;;67.50;52.50;;;;;3.01;59.66;101119.84;4971940;28;8850;-75
2022/01/19 07:36:21;;;;;;;;;65.75;52.75;;;;;3.10;59.50;101106.56;4971896;28;9686;-75
2022/01/19 07:38:50;;;;;;;;;61.00;50.25;;;;;3.19;58.95;101116.50;4987558;28;8854;-74
2022/01/19 07:41:19;;;;;;;;;56.50;49.25;;;;;3.14;58.76;101116.28;4971399;28;8858;-76
2022/01/19 07:43:50;;;;;;;;;67.25;48.00;;;;;3.25;58.73;101120.31;4953234;28;8844;-74
2022/01/19 07:46:55;;;;;;;;;67.75;54.25;;;;;3.37;58.77;101116.63;4949258;28;9065;-74
2022/01/19 07:49:40;;;;;;;;;60.75;50.50;;;;;3.45;58.56;101116.22;4951882;28;8856;-75
2022/01/19 07:52:29;;;;;;;;;67.00;51.75;;;;;3.45;58.01;101116.22;4968877;28;8872;-77
2022/01/19 07:55:05;;;;;;;;;56.75;47.50;;;;;3.45;58.24;101112.75;4899895;29;8894;-75
2022/01/19 07:58:04;;;;;;;;;55.75;47.50;;;;;3.58;58.24;101099.72;4910268;29;9031;-75
2022/01/19 08:00:35;;;;;;;;;65.75;53.00;;;;;3.69;58.01;101092.53;4895294;29;8897;-75
2022/01/19 08:03:25;;;;;;;;;67.00;53.00;;;;;3.80;57.78;101098.25;4895075;29;8879;-75
2022/01/19 08:06:03;;;;;;;;;65.25;48.25;;;;;3.90;56.73;101091.06;4861537;29;9015;-74
2022/01/19 08:08:36;;;;;;;;;52.50;46.00;;;;;3.98;57.06;101090.56;4864603;29;8881;-75
2022/01/19 08:11:05;;;;;;;;;63.75;52.75;;;;;4.02;57.13;101093.38;4870166;29;8877;-76
2022/01/19 08:13:38;;;;;;;;;50.25;46.50;;;;;3.98;56.56;101093.16;4854131;29;8857;-75
2022/01/19 08:16:07;;;;;;;;;59.25;47.50;;;;;4.03;57.09;101092.56;4869683;29;8996;-75
2022/01/19 08:18:36;;;;;;;;;63.25;52.75;;;;;4.15;56.32;101086.25;4872341;29;8895;-77
2022/01/19 08:21:05;;;;;;;;;58.25;48.50;;;;;4.20;56.22;101082.22;4868854;29;8927;-74
2022/01/19 08:23:45;;;;;;;;;62.00;51.00;;;;;4.33;56.15;101087.19;4895403;29;8928;-75
2022/01/19 08:26:15;;;;;;;;;66.25;53.00;;;;;4.41;55.86;101085.84;4903725;29;8886;-75
2022/01/19 08:28:45;;;;;;;;;55.50;46.75;;;;;4.49;55.58;101078.47;4897015;29;8879;-76
2022/01/19 08:31:15;;;;;;;;;65.25;50.75;;;;;4.58;55.36;101088.38;4929458;29;8962;-74
2022/01/19 08:34:03;;;;;;;;;58.00;47.25;;;;;4.67;55.11;101088.84;4947090;28;8968;-75
2022/01/19 08:36:52;;;;;;;;;53.50;45.50;;;;;4.77;55.19;101096.22;5002741;28;8844;-76
2022/01/19 08:39:27;;;;;;;;;53.00;43.75;;;;;4.85;55.27;101088.81;5029827;28;8863;-75
2022/01/19 08:41:58;;;;;;;;;63.00;50.50;;;;;4.84;54.14;101092.22;5012656;28;8848;-76
2022/01/19 08:44:26;;;;;;;;;56.25;47.00;;;;;4.63;54.40;101090.38;5010828;28;8859;-76
2022/01/19 08:47:08;;;;;;;;;58.00;50.25;;;;;4.71;54.93;101093.34;5029518;28;8863;-78
2022/01/19 08:50:19;;;;;;;;;40.50;40.25;;;;;4.82;54.62;101091.25;5023720;28;8858;-76
2022/01/19 08:53:01;;;;;;;;;64.50;51.75;;;;;4.94;54.68;101081.50;5009143;28;8870;-73
2022/01/19 08:55:40;;;;;;;;;55.00;48.75;;;;;4.53;55.40;101090.72;5009545;28;8850;-75
2022/01/19 08:58:10;;;;;;;;;57.25;41.25;;;;;4.59;55.21;101078.09;5009965;28;8853;-74
2022/01/19 09:00:39;;;;;;;;;46.50;42.50;;;;;4.73;54.57;101075.31;5025718;28;8834;-74
2022/01/19 09:03:08;;;;;;;;;58.25;47.50;;;;;4.84;54.81;101085.34;5006685;28;8846;-76
2022/01/19 09:05:37;;;;;;;;;49.25;44.25;;;;;4.77;54.91;101090.16;5025389;28;8873;-74
2022/01/19 09:08:06;;;;;;;;;60.75;48.00;;;;;4.90;54.69;101084.75;4974633;28;8857;-74
2022/01/19 09:10:35;;;;;;;;;50.25;41.00;;;;;5.04;54.82;101073.34;5008352;28;8951;-73
2022/01/19 09:13:05;;;;;;;;;49.00;43.25;;;;;5.06;54.70;101073.41;5024812;28;8888;-77
2022/01/19 09:15:35;;;;;;;;;61.25;47.25;;;;;5.12;53.66;101078.00;4937223;28;8964;-76
2022/01/19 09:18:04;;;;;;;;;61.25;45.75;;;;;4.57;54.15;101077.16;4985656;28;8866;-73
2022/01/19 09:20:32;;;;;;;;;42.75;38.75;;;;;4.51;55.86;101076.84;4985973;28;8997;-76
2022/01/19 09:23:02;;;;;;;;;54.00;47.00;;;;;4.34;56.85;101076.03;5001679;28;8874;-76
2022/01/19 09:25:32;;;;;;;;;53.00;45.50;;;;;4.01;56.59;101076.13;4985420;28;9095;-75
2022/01/19 09:28:01;;;;;;;;;48.25;43.00;;;;;4.08;57.27;101070.47;5013849;28;8905;-79
2022/01/19 09:30:31;;;;;;;;;45.50;43.00;;;;;4.39;56.67;101065.94;5026869;28;8855;-76
2022/01/19 09:33:09;;;;;;;;;55.00;46.50;;;;;4.64;56.09;101063.72;5045041;28;8855;-75
2022/01/19 09:35:53;;;;;;;;;40.50;35.50;;;;;4.76;55.74;101063.41;4983334;28;9799;-75
2022/01/19 09:38:24;;;;;;;;;39.00;31.75;;;;;4.50;55.66;101062.19;5007516;28;9665;-74
2022/01/19 09:40:53;;;;;;;;;38.75;35.00;;;;;4.46;55.50;101055.06;5006596;28;9440;-73
2022/01/19 09:43:22;;;;;;;;;38.25;33.00;;;;;4.69;55.73;101051.91;5044310;28;8891;-76
2022/01/19 09:45:55;;;;;;;;;21.25;17.25;;;;;4.68;55.15;101054.41;5033851;28;8976;-75
2022/01/19 09:48:25;;;;;;;;;40.50;36.75;;;;;4.88;54.88;101047.63;5009926;28;8847;-75
2022/01/19 09:50:56;;;;;;;;;31.75;27.75;;;;;4.14;56.77;101050.91;5044947;28;9014;-74
2022/01/19 09:53:25;;;;;;;;;34.50;29.00;;;;;4.45;55.82;101048.16;5047835;28;8898;-75
2022/01/19 09:55:54;;;;;;;;;31.00;29.75;;;;;4.56;55.35;101041.81;5048102;28;8839;-74
2022/01/19 09:58:22;;;;;;;;;38.75;31.00;;;;;4.71;55.19;101036.50;5049176;28;8913;-76
2022/01/19 10:00:53;;;;;;;;;28.75;26.00;;;;;4.90;55.41;101030.47;5066663;28;8902;-75
2022/01/19 10:03:25;;;;;;;;;30.25;29.00;;;;;4.99;53.93;101030.00;5067702;28;8859;-76
2022/01/19 10:05:56;;;;;;;;;37.25;32.50;;;;;4.79;53.86;101019.63;5065964;28;8940;-76
2022/01/19 10:08:30;;;;;;;;;35.00;29.50;;;;;5.06;54.12;101021.72;5066079;28;8863;-76
2022/01/19 10:11:16;;;;;;;;;34.50;30.50;;;;;5.25;53.58;101013.09;5064753;28;8899;-76
2022/01/19 10:17:01;;;;;;;;;26.00;23.25;;;;;5.00;53.15;101011.97;5065530;28;8836;-75
2022/01/19 10:19:32;;;;;;;;;28.00;25.75;;;;;5.17;53.38;101006.69;5031126;28;8984;-74
2022/01/19 10:22:13;;;;;;;;;23.00;18.50;;;;;4.40;53.05;101003.13;5066711;28;8848;-76
2022/01/19 10:24:48;;;;;;;;;20.25;19.25;;;;;4.53;54.39;101000.31;5067408;28;8836;-73
2022/01/19 10:27:30;;;;;;;;;27.00;20.25;;;;;4.83;53.26;100993.13;5065443;28;9078;-76
2022/01/19 10:30:25;;;;;;;;;22.25;20.00;;;;;5.14;53.64;100988.44;5065609;28;9578;-73
2022/01/19 10:33:00;;;;;;;;;24.80;21.00;;;;;4.64;53.10;100988.78;5065449;28;9010;-74
2022/01/19 10:35:32;;;;;;;;;26.50;25.00;;;;;4.87;53.65;100989.84;5065465;28;8894;-74
2022/01/19 10:38:11;;;;;;;;;24.75;21.00;;;;;4.98;53.27;100977.41;5066137;28;8859;-75
2022/01/19 10:40:42;;;;;;;;;22.50;20.00;;;;;5.25;53.25;100980.38;5049653;28;8863;-75
2022/01/19 10:43:33;;;;;;;;;9.50;6.25;;;;;4.34;53.89;100977.03;5069687;28;10043;-74
2022/01/19 10:46:22;;;;;;;;;18.60;15.00;;;;;4.85;54.09;100965.63;5064281;28;8960;-74
2022/01/19 10:48:59;;;;;;;;;24.00;24.00;;;;;4.92;52.73;100960.75;5068567;28;8898;-75
2022/01/19 10:51:36;;;;;;;;;26.00;25.75;;;;;5.09;53.41;100954.66;5052362;28;8848;-75
2022/01/19 10:54:11;;;;;;;;;21.00;19.00;;;;;5.45;52.37;100952.75;5070054;28;8828;-74
2022/01/19 10:56:42;;;;;;;;;17.60;17.60;;;;;5.23;51.56;100955.25;5052616;28;8855;-75
2022/01/19 10:59:13;;;;;;;;;31.25;24.75;;;;;5.38;51.92;100948.13;5049268;28;8941;-74
2022/01/19 11:01:44;;;;;;;;;27.25;23.25;;;;;5.53;51.43;100942.75;5069741;28;8836;-74
2022/01/19 11:04:27;;;;;;;;;24.60;23.00;;;;;5.12;51.32;100941.84;5071721;28;8914;-76
2022/01/19 11:06:59;;;;;;;;;31.25;25.75;;;;;4.91;52.93;100935.72;5066608;28;9596;-77
2022/01/19 11:09:30;;;;;;;;;20.40;19.40;;;;;5.38;52.12;100921.41;5070697;28;8848;-76
2022/01/19 11:12:04;;;;;;;;;24.20;20.20;;;;;5.25;51.74;100922.56;5068781;28;8835;-74
2022/01/19 11:14:35;;;;;;;;;22.40;20.00;;;;;5.38;50.95;100916.22;5069777;28;8860;-74
2022/01/19 11:17:24;;;;;;;;;19.40;15.20;;;;;5.38;50.38;100914.50;5053171;28;8868;-75
2022/01/19 11:19:54;;;;;;;;;27.25;24.25;;;;;4.95;52.02;100909.19;5086133;28;9048;-75
2022/01/19 11:22:34;;;;;;;;;23.50;21.25;;;;;5.37;52.23;100897.25;5035680;28;8852;-73
2022/01/19 11:25:11;;;;;;;;;23.00;22.00;;;;;5.81;51.16;100886.97;5051904;28;8862;-76
2022/01/19 11:27:58;;;;;;;;;27.00;25.00;;;;;6.19;50.04;100893.69;5069021;28;8860;-73
2022/01/19 11:30:30;;;;;;;;;30.00;27.00;;;;;6.37;49.59;100884.84;5056425;28;8901;-76
2022/01/19 11:33:15;;;;;;;;;24.75;23.25;;;;;5.84;48.36;100887.06;5070953;28;8847;-69
2022/01/19 11:35:48;;;;;;;;;19.60;15.80;;;;;5.02;50.32;100890.56;5068104;28;8847;-74
2022/01/19 11:38:32;;;;;;;;;20.40;17.20;;;;;5.10;50.83;100881.41;5083302;28;8898;-75
2022/01/19 11:41:03;;;;;;;;;21.20;21.00;;;;;5.16;50.81;100879.13;5069545;28;8868;-74
2022/01/19 11:43:32;;;;;;;;;25.00;21.80;;;;;5.26;50.53;100865.75;5067216;28;8879;-75
2022/01/19 11:46:03;;;;;;;;;16.40;15.60;;;;;4.48;52.26;100867.50;5051808;28;8917;-78
2022/01/19 11:48:35;;;;;;;;;25.00;23.80;;;;;4.17;53.54;100868.66;5068443;28;8856;-77
2022/01/19 11:51:28;;;;;;;;;24.60;23.80;;;;;4.20;54.18;100857.63;5030254;28;8858;-76
2022/01/19 11:54:06;;;;;;;;;30.50;22.75;;;;;4.69;52.61;100852.97;5044666;28;9041;-76
2022/01/19 11:57:08;;;;;;;;;20.20;20.20;;;;;5.17;52.22;100841.22;5009188;28;9713;-76
2022/01/19 12:00:05;;;;;;;;;20.00;18.80;;;;;5.56;51.30;100838.50;5043841;28;9637;-75
2022/01/19 12:02:42;;;;;;;;;23.00;20.20;;;;;4.87;51.60;100828.72;5028102;28;8853;-75
2022/01/19 12:05:39;;;;;;;;;16.00;13.20;;;;;4.86;51.79;100827.84;5027402;28;8845;-75
2022/01/19 12:08:34;;;;;;;;;17.40;17.40;;;;;5.35;51.39;100817.78;5027278;28;8858;-74
2022/01/19 12:11:17;;;;;;;;;17.60;15.40;;;;;5.70;50.46;100813.19;4948859;28;8858;-76
2022/01/19 12:16:53;;;;;;;;;20.20;19.40;;;;;5.06;51.06;100813.19;4916463;28;9032;-75
2022/01/19 12:19:28;;;;;;;;;26.25;24.25;;;;;4.45;52.80;100820.88;4932237;28;8862;-76
2022/01/19 12:22:11;;;;;;;;;19.75;18.75;;;;;4.14;53.73;100811.75;4931563;28;8993;-75
2022/01/19 12:24:44;;;;;;;;;18.80;15.00;;;;;4.64;53.39;100813.09;4915495;28;9092;-74
2022/01/19 12:27:26;;;;;;;;;18.50;18.25;;;;;4.79;52.16;100812.03;4931526;28;8976;-76
2022/01/19 12:30:07;;;;;;;;;21.00;21.00;;;;;4.67;52.31;100808.09;4949636;28;8926;-74
2022/01/19 12:32:46;;;;;;;;;28.50;23.75;;;;;4.41;53.55;100800.91;4966074;28;8852;-74
2022/01/19 12:35:35;;;;;;;;;20.25;18.25;;;;;4.86;52.56;100790.81;4950118;28;8906;-75
2022/01/19 12:38:19;;;;;;;;;24.25;21.50;;;;;5.25;51.87;100786.41;4967503;28;8925;-75
2022/01/19 12:40:57;;;;;;;;;21.00;21.00;;;;;5.36;49.58;100776.47;4935160;28;8857;-76
2022/01/19 12:43:33;;;;;;;;;18.75;16.00;;;;;5.01;50.21;100781.09;4934609;28;8836;-75
2022/01/19 12:46:04;;;;;;;;;25.75;25.25;;;;;5.35;50.70;100777.31;4935795;28;8903;-73
2022/01/19 12:48:40;;;;;;;;;24.00;22.50;;;;;5.66;49.70;100763.00;5021871;28;8930;-76
2022/01/19 12:51:40;;;;;;;;;22.25;19.75;;;;;5.82;48.86;100767.06;5067498;28;8884;-76
2022/01/19 12:54:13;;;;;;;;;20.00;18.50;;;;;6.08;48.72;100757.72;5064425;28;8840;-76
2022/01/19 12:57:02;;;;;;;;;23.00;19.75;;;;;6.23;48.89;100752.22;5072792;28;8880;-75
2022/01/19 12:59:32;;;;;;;;;37.25;30.25;;;;;6.20;47.86;100747.84;5065986;28;8989;-75
2022/01/19 13:02:03;;;;;;;;;33.00;29.25;;;;;6.12;48.14;100744.06;5060261;28;9085;-76
2022/01/19 13:04:34;;;;;;;;;30.75;24.75;;;;;6.28;47.82;100742.94;5064222;28;9612;-74
2022/01/19 13:07:18;;;;;;;;;27.50;25.75;;;;;6.49;47.83;100732.44;5066400;28;8860;-74
2022/01/19 13:10:08;;;;;;;;;41.00;32.50;;;;;6.51;47.36;100730.78;5066215;28;8872;-75